sensor_id;sensor_type;location;lat;lon;timestamp;pressure;altitude;pressure_sealevel;temperature;humidity
56831;BME280;42713;42.676;23.352;2024-02-28T00:00:09;95072.91;;;11.29;59.27
56831;BME280;42713;42.676;23.352;2024-02-28T00:02:36;95080.56;;;11.31;59.44
56831;BME280;42713;42.676;23.352;2024-02-28T00:05:02;95081.59;;;11.30;59.90
56831;BME280;42713;42.676;23.352;2024-02-28T00:07:27;95084.22;;;11.30;59.95
56831;BME280;42713;42.676;23.352;2024-02-28T00:09:53;95086.84;;;11.30;59.78
56831;BME280;42713;42.676;23.352;2024-02-28T00:12:23;95084.22;;;11.30;60.18
56831;BME280;42713;42.676;23.352;2024-02-28T00:14:50;95082.53;;;11.24;59.09
56831;BME280;42713;42.676;23.352;2024-02-28T00:17:16;95086.19;;;11.23;60.28
56831;BME280;42713;42.676;23.352;2024-02-28T00:19:41;95091.09;;;11.19;59.67
56831;BME280;42713;42.676;23.352;2024-02-28T00:22:08;95088.41;;;11.14;60.24
56831;BME280;42713;42.676;23.352;2024-02-28T00:24:34;95088.41;;;11.14;60.57
56831;BME280;42713;42.676;23.352;2024-02-28T00:26:59;95092.31;;;11.11;60.31
56831;BME280;42713;42.676;23.352;2024-02-28T00:29:24;95091.75;;;11.09;60.48
56831;BME280;42713;42.676;23.352;2024-02-28T00:31:50;95085.84;;;11.02;60.80
56831;BME280;42713;42.676;23.352;2024-02-28T00:34:15;95093.72;;;11.02;60.72
56831;BME280;42713;42.676;23.352;2024-02-28T00:36:41;95079.47;;;10.98;61.07
56831;BME280;42713;42.676;23.352;2024-02-28T00:39:07;95082.88;;;10.98;60.95
56831;BME280;42713;42.676;23.352;2024-02-28T00:41:32;95071.75;;;10.91;61.26
56831;BME280;42713;42.676;23.352;2024-02-28T00:43:58;95083.59;;;10.94;60.94
56831;BME280;42713;42.676;23.352;2024-02-28T00:46:23;95072.72;;;10.85;61.27
56831;BME280;42713;42.676;23.352;2024-02-28T00:48:49;95079.06;;;10.89;62.24
56831;BME280;42713;42.676;23.352;2024-02-28T00:51:15;95082.69;;;10.88;61.55
56831;BME280;42713;42.676;23.352;2024-02-28T00:53:40;95086.13;;;10.88;62.17
56831;BME280;42713;42.676;23.352;2024-02-28T00:56:06;95082.16;;;10.86;61.74
56831;BME280;42713;42.676;23.352;2024-02-28T00:58:32;95081.34;;;10.85;61.98
56831;BME280;42713;42.676;23.352;2024-02-28T01:00:57;95093.09;;;10.83;61.43
56831;BME280;42713;42.676;23.352;2024-02-28T01:03:23;95091.44;;;10.77;61.58
56831;BME280;42713;42.676;23.352;2024-02-28T01:05:49;95092.59;;;10.69;61.95
56831;BME280;42713;42.676;23.352;2024-02-28T01:08:15;95097.97;;;10.62;61.82
56831;BME280;42713;42.676;23.352;2024-02-28T01:10:42;95096.59;;;10.59;62.61
56831;BME280;42713;42.676;23.352;2024-02-28T01:13:08;95092.06;;;10.55;62.12
56831;BME280;42713;42.676;23.352;2024-02-28T01:15:33;95088.63;;;10.54;62.42
56831;BME280;42713;42.676;23.352;2024-02-28T01:17:58;95089.34;;;10.50;62.49
56831;BME280;42713;42.676;23.352;2024-02-28T01:20:24;95094.72;;;10.43;62.62
56831;BME280;42713;42.676;23.352;2024-02-28T01:22:50;95100.41;;;10.40;62.75
56831;BME280;42713;42.676;23.352;2024-02-28T01:25:16;95102.47;;;10.38;63.11
56831;BME280;42713;42.676;23.352;2024-02-28T01:27:41;95098.13;;;10.32;63.48
56831;BME280;42713;42.676;23.352;2024-02-28T01:30:08;95096.53;;;10.31;63.57
56831;BME280;42713;42.676;23.352;2024-02-28T01:32:34;95098.91;;;10.32;63.00
56831;BME280;42713;42.676;23.352;2024-02-28T01:34:59;95112.00;;;10.32;63.24
56831;BME280;42713;42.676;23.352;2024-02-28T01:37:25;95110.06;;;10.27;63.41
56831;BME280;42713;42.676;23.352;2024-02-28T01:39:50;95107.13;;;10.24;63.51
56831;BME280;42713;42.676;23.352;2024-02-28T01:42:16;95115.09;;;10.17;63.17
56831;BME280;42713;42.676;23.352;2024-02-28T01:44:44;95113.16;;;10.12;63.45
56831;BME280;42713;42.676;23.352;2024-02-28T01:47:11;95114.66;;;10.08;63.33
56831;BME280;42713;42.676;23.352;2024-02-28T01:49:37;95112.50;;;10.05;64.15
56831;BME280;42713;42.676;23.352;2024-02-28T01:52:04;95108.72;;;10.01;63.88
56831;BME280;42713;42.676;23.352;2024-02-28T01:54:31;95112.03;;;9.96;64.39
56831;BME280;42713;42.676;23.352;2024-02-28T01:56:57;95112.50;;;9.93;64.37
56831;BME280;42713;42.676;23.352;2024-02-28T01:59:23;95122.16;;;9.93;64.51
56831;BME280;42713;42.676;23.352;2024-02-28T02:01:50;95128.66;;;9.90;64.40
56831;BME280;42713;42.676;23.352;2024-02-28T02:04:16;95120.66;;;9.85;64.30
56831;BME280;42713;42.676;23.352;2024-02-28T02:06:42;95111.81;;;9.86;64.86
56831;BME280;42713;42.676;23.352;2024-02-28T02:09:09;95122.50;;;9.85;64.64
56831;BME280;42713;42.676;23.352;2024-02-28T02:11:35;95121.16;;;9.82;64.51
56831;BME280;42713;42.676;23.352;2024-02-28T02:14:00;95117.19;;;9.79;64.87
56831;BME280;42713;42.676;23.352;2024-02-28T02:16:26;95118.63;;;9.75;64.67
56831;BME280;42713;42.676;23.352;2024-02-28T02:19:10;95107.34;;;9.75;65.03
56831;BME280;42713;42.676;23.352;2024-02-28T02:21:57;95118.88;;;9.74;65.16
56831;BME280;42713;42.676;23.352;2024-02-28T02:24:22;95115.69;;;9.72;64.95
56831;BME280;42713;42.676;23.352;2024-02-28T02:26:48;95109.63;;;9.71;65.27
56831;BME280;42713;42.676;23.352;2024-02-28T02:29:16;95107.50;;;9.68;65.12
56831;BME280;42713;42.676;23.352;2024-02-28T02:31:42;95113.50;;;9.69;65.20
56831;BME280;42713;42.676;23.352;2024-02-28T02:34:07;95111.34;;;9.65;65.22
56831;BME280;42713;42.676;23.352;2024-02-28T02:36:33;95108.97;;;9.64;65.47
56831;BME280;42713;42.676;23.352;2024-02-28T02:38:58;95114.75;;;9.66;65.25
56831;BME280;42713;42.676;23.352;2024-02-28T02:41:23;95112.38;;;9.64;65.13
56831;BME280;42713;42.676;23.352;2024-02-28T02:43:49;95120.66;;;9.61;65.12
56831;BME280;42713;42.676;23.352;2024-02-28T02:46:14;95121.47;;;9.62;65.13
56831;BME280;42713;42.676;23.352;2024-02-28T02:48:40;95121.13;;;9.58;65.45
56831;BME280;42713;42.676;23.352;2024-02-28T02:51:05;95121.56;;;9.55;64.73
56831;BME280;42713;42.676;23.352;2024-02-28T02:53:30;95122.03;;;9.52;65.30
56831;BME280;42713;42.676;23.352;2024-02-28T02:55:56;95120.88;;;9.48;65.41
56831;BME280;42713;42.676;23.352;2024-02-28T02:58:21;95120.53;;;9.44;65.72
56831;BME280;42713;42.676;23.352;2024-02-28T03:00:47;95116.56;;;9.42;65.75
56831;BME280;42713;42.676;23.352;2024-02-28T03:03:13;95115.63;;;9.36;65.54
56831;BME280;42713;42.676;23.352;2024-02-28T03:05:38;95121.63;;;9.37;65.69
56831;BME280;42713;42.676;23.352;2024-02-28T03:08:04;95117.09;;;9.32;66.05
56831;BME280;42713;42.676;23.352;2024-02-28T03:10:29;95116.53;;;9.30;66.13
56831;BME280;42713;42.676;23.352;2024-02-28T03:12:58;95111.50;;;9.28;66.05
56831;BME280;42713;42.676;23.352;2024-02-28T03:15:23;95111.97;;;9.25;66.33
56831;BME280;42713;42.676;23.352;2024-02-28T03:17:49;95110.59;;;9.23;66.57
56831;BME280;42713;42.676;23.352;2024-02-28T03:20:14;95116.84;;;9.22;65.84
56831;BME280;42713;42.676;23.352;2024-02-28T03:22:40;95118.09;;;9.19;66.32
56831;BME280;42713;42.676;23.352;2024-02-28T03:25:06;95112.41;;;9.10;66.44
56831;BME280;42713;42.676;23.352;2024-02-28T03:27:32;95120.44;;;9.09;66.56
56831;BME280;42713;42.676;23.352;2024-02-28T03:29:57;95119.50;;;9.03;66.65
56831;BME280;42713;42.676;23.352;2024-02-28T03:32:23;95126.13;;;9.06;67.50
56831;BME280;42713;42.676;23.352;2024-02-28T03:34:48;95127.34;;;9.03;67.23
56831;BME280;42713;42.676;23.352;2024-02-28T03:37:14;95127.34;;;9.03;67.21
56831;BME280;42713;42.676;23.352;2024-02-28T03:39:39;95128.00;;;8.98;67.32
56831;BME280;42713;42.676;23.352;2024-02-28T03:42:23;95137.44;;;8.99;67.30
56831;BME280;42713;42.676;23.352;2024-02-28T03:44:49;95140.53;;;8.96;67.06
56831;BME280;42713;42.676;23.352;2024-02-28T03:47:14;95131.53;;;8.92;67.48
56831;BME280;42713;42.676;23.352;2024-02-28T03:49:40;95138.41;;;8.86;67.45
56831;BME280;42713;42.676;23.352;2024-02-28T03:52:05;95133.44;;;8.85;67.91
56831;BME280;42713;42.676;23.352;2024-02-28T03:54:31;95138.84;;;8.83;68.32
56831;BME280;42713;42.676;23.352;2024-02-28T03:56:57;95137.06;;;8.84;67.89
56831;BME280;42713;42.676;23.352;2024-02-28T03:59:24;95145.09;;;8.82;68.05
56831;BME280;42713;42.676;23.352;2024-02-28T04:01:49;95137.06;;;8.84;68.70
56831;BME280;42713;42.676;23.352;2024-02-28T04:04:15;95132.03;;;8.82;68.57
56831;BME280;42713;42.676;23.352;2024-02-28T04:06:40;95126.59;;;8.84;68.59
56831;BME280;42713;42.676;23.352;2024-02-28T04:09:05;95121.59;;;8.82;68.58
56831;BME280;42713;42.676;23.352;2024-02-28T04:11:31;95136.59;;;8.87;68.78
56831;BME280;42713;42.676;23.352;2024-02-28T04:13:57;95125.34;;;8.86;68.38
56831;BME280;42713;42.676;23.352;2024-02-28T04:16:22;95132.19;;;8.87;68.29
56831;BME280;42713;42.676;23.352;2024-02-28T04:18:47;95132.19;;;8.87;68.36
56831;BME280;42713;42.676;23.352;2024-02-28T04:21:13;95127.19;;;8.86;68.20
56831;BME280;42713;42.676;23.352;2024-02-28T04:23:38;95130.22;;;8.83;68.75
56831;BME280;42713;42.676;23.352;2024-02-28T04:26:04;95131.00;;;8.83;68.49
56831;BME280;42713;42.676;23.352;2024-02-28T04:28:29;95124.56;;;8.86;68.61
56831;BME280;42713;42.676;23.352;2024-02-28T04:30:55;95134.22;;;8.85;68.70
56831;BME280;42713;42.676;23.352;2024-02-28T04:33:21;95128.41;;;8.83;68.33
56831;BME280;42713;42.676;23.352;2024-02-28T04:35:48;95118.97;;;8.82;68.34
56831;BME280;42713;42.676;23.352;2024-02-28T04:38:13;95127.03;;;8.81;68.37
56831;BME280;42713;42.676;23.352;2024-02-28T04:40:39;95133.28;;;8.80;68.69
56831;BME280;42713;42.676;23.352;2024-02-28T04:43:04;95132.13;;;8.76;68.72
56831;BME280;42713;42.676;23.352;2024-02-28T04:45:30;95128.78;;;8.68;68.92
56831;BME280;42713;42.676;23.352;2024-02-28T04:47:55;95138.88;;;8.65;69.00
56831;BME280;42713;42.676;23.352;2024-02-28T04:50:22;95133.31;;;8.61;69.23
56831;BME280;42713;42.676;23.352;2024-02-28T04:52:47;95140.78;;;8.57;69.45
56831;BME280;42713;42.676;23.352;2024-02-28T04:55:12;95146.66;;;8.53;68.98
56831;BME280;42713;42.676;23.352;2024-02-28T04:57:38;95142.44;;;8.52;69.64
56831;BME280;42713;42.676;23.352;2024-02-28T05:00:04;95141.84;;;8.50;69.55
56831;BME280;42713;42.676;23.352;2024-02-28T05:02:29;95126.69;;;8.40;69.51
56831;BME280;42713;42.676;23.352;2024-02-28T05:04:55;95141.91;;;8.43;70.19
56831;BME280;42713;42.676;23.352;2024-02-28T05:07:21;95146.69;;;8.46;70.29
56831;BME280;42713;42.676;23.352;2024-02-28T05:09:47;95150.31;;;8.45;70.15
56831;BME280;42713;42.676;23.352;2024-02-28T05:12:13;95143.94;;;8.41;70.32
56831;BME280;42713;42.676;23.352;2024-02-28T05:14:38;95156.19;;;8.40;69.83
56831;BME280;42713;42.676;23.352;2024-02-28T05:17:03;95162.88;;;8.36;70.31
56831;BME280;42713;42.676;23.352;2024-02-28T05:19:29;95162.28;;;8.34;70.27
56831;BME280;42713;42.676;23.352;2024-02-28T05:21:54;95161.94;;;8.31;70.45
56831;BME280;42713;42.676;23.352;2024-02-28T05:24:20;95168.16;;;8.30;70.59
56831;BME280;42713;42.676;23.352;2024-02-28T05:26:45;95166.19;;;8.25;70.78
56831;BME280;42713;42.676;23.352;2024-02-28T05:29:11;95172.44;;;8.24;71.13
56831;BME280;42713;42.676;23.352;2024-02-28T05:31:36;95176.84;;;8.23;70.98
56831;BME280;42713;42.676;23.352;2024-02-28T05:34:03;95184.09;;;8.21;70.99
56831;BME280;42713;42.676;23.352;2024-02-28T05:36:30;95185.31;;;8.19;70.58
56831;BME280;42713;42.676;23.352;2024-02-28T05:39:14;95193.13;;;8.19;71.22
56831;BME280;42713;42.676;23.352;2024-02-28T05:41:40;95185.59;;;8.10;71.51
56831;BME280;42713;42.676;23.352;2024-02-28T05:44:12;95181.25;;;8.04;71.63
56831;BME280;42713;42.676;23.352;2024-02-28T05:46:37;95193.63;;;8.09;72.03
56831;BME280;42713;42.676;23.352;2024-02-28T05:49:04;95196.97;;;8.16;71.82
56831;BME280;42713;42.676;23.352;2024-02-28T05:51:29;95195.56;;;8.20;71.89
56831;BME280;42713;42.676;23.352;2024-02-28T05:53:55;95199.53;;;8.23;71.93
56831;BME280;42713;42.676;23.352;2024-02-28T05:56:20;95191.13;;;8.21;71.91
56831;BME280;42713;42.676;23.352;2024-02-28T05:58:47;95213.53;;;8.29;71.78
56831;BME280;42713;42.676;23.352;2024-02-28T06:01:16;95219.34;;;8.31;72.20
56831;BME280;42713;42.676;23.352;2024-02-28T06:03:42;95209.28;;;8.34;72.09
56831;BME280;42713;42.676;23.352;2024-02-28T06:06:10;95207.59;;;8.40;75.87
56831;BME280;42713;42.676;23.352;2024-02-28T06:08:38;95208.56;;;8.46;73.88
56831;BME280;42713;42.676;23.352;2024-02-28T06:11:03;95212.16;;;8.51;72.82
56831;BME280;42713;42.676;23.352;2024-02-28T06:13:29;95214.13;;;8.56;72.03
56831;BME280;42713;42.676;23.352;2024-02-28T06:15:55;95216.84;;;8.61;72.62
56831;BME280;42713;42.676;23.352;2024-02-28T06:18:21;95219.63;;;8.66;72.48
56831;BME280;42713;42.676;23.352;2024-02-28T06:20:48;95215.63;;;8.64;72.26
56831;BME280;42713;42.676;23.352;2024-02-28T06:23:14;95225.22;;;8.70;72.50
56831;BME280;42713;42.676;23.352;2024-02-28T06:25:39;95227.38;;;8.73;71.51
56831;BME280;42713;42.676;23.352;2024-02-28T06:28:05;95221.94;;;8.75;72.10
56831;BME280;42713;42.676;23.352;2024-02-28T06:30:35;95228.66;;;8.82;72.00
56831;BME280;42713;42.676;23.352;2024-02-28T06:33:01;95221.66;;;8.83;72.17
56831;BME280;42713;42.676;23.352;2024-02-28T06:35:27;95230.84;;;8.85;71.41
56831;BME280;42713;42.676;23.352;2024-02-28T06:37:52;95236.00;;;8.92;71.56
56831;BME280;42713;42.676;23.352;2024-02-28T06:40:18;95239.34;;;8.99;72.19
56831;BME280;42713;42.676;23.352;2024-02-28T06:42:43;95223.47;;;9.01;71.55
56831;BME280;42713;42.676;23.352;2024-02-28T06:45:09;95231.78;;;9.10;71.68
56831;BME280;42713;42.676;23.352;2024-02-28T06:47:34;95230.78;;;9.11;71.02
56831;BME280;42713;42.676;23.352;2024-02-28T06:50:05;95228.50;;;9.14;70.86
56831;BME280;42713;42.676;23.352;2024-02-28T06:52:31;95232.50;;;9.17;70.61
56831;BME280;42713;42.676;23.352;2024-02-28T06:54:56;95229.22;;;9.22;70.65
56831;BME280;42713;42.676;23.352;2024-02-28T06:57:22;95236.97;;;9.28;70.42
56831;BME280;42713;42.676;23.352;2024-02-28T06:59:47;95231.91;;;9.33;70.85
56831;BME280;42713;42.676;23.352;2024-02-28T07:02:14;95238.84;;;9.40;71.09
56831;BME280;42713;42.676;23.352;2024-02-28T07:04:40;95235.56;;;9.44;70.81
56831;BME280;42713;42.676;23.352;2024-02-28T07:07:06;95236.28;;;9.52;70.62
56831;BME280;42713;42.676;23.352;2024-02-28T07:09:31;95232.19;;;9.56;70.06
56831;BME280;42713;42.676;23.352;2024-02-28T07:11:58;95230.94;;;9.58;69.83
56831;BME280;42713;42.676;23.352;2024-02-28T07:14:24;95216.16;;;9.52;69.46
56831;BME280;42713;42.676;23.352;2024-02-28T07:16:49;95226.53;;;9.59;70.09
56831;BME280;42713;42.676;23.352;2024-02-28T07:19:17;95232.91;;;9.63;71.69
56831;BME280;42713;42.676;23.352;2024-02-28T07:21:43;95235.66;;;9.68;70.58
56831;BME280;42713;42.676;23.352;2024-02-28T07:24:08;95230.44;;;9.68;69.35
56831;BME280;42713;42.676;23.352;2024-02-28T07:26:34;95239.97;;;9.74;69.27
56831;BME280;42713;42.676;23.352;2024-02-28T07:28:59;95235.91;;;9.78;69.74
56831;BME280;42713;42.676;23.352;2024-02-28T07:31:25;95249.09;;;9.84;69.26
56831;BME280;42713;42.676;23.352;2024-02-28T07:33:50;95237.03;;;9.82;68.57
56831;BME280;42713;42.676;23.352;2024-02-28T07:36:16;95228.53;;;9.87;70.24
56831;BME280;42713;42.676;23.352;2024-02-28T07:38:42;95237.88;;;9.95;69.91
56831;BME280;42713;42.676;23.352;2024-02-28T07:41:07;95243.00;;;10.02;70.57
56831;BME280;42713;42.676;23.352;2024-02-28T07:43:33;95243.69;;;10.09;69.99
56831;BME280;42713;42.676;23.352;2024-02-28T07:46:11;95242.00;;;10.15;69.67
56831;BME280;42713;42.676;23.352;2024-02-28T07:48:37;95236.09;;;10.19;69.39
56831;BME280;42713;42.676;23.352;2024-02-28T07:51:07;95243.34;;;10.29;68.88
56831;BME280;42713;42.676;23.352;2024-02-28T07:53:32;95242.22;;;10.37;68.52
56831;BME280;42713;42.676;23.352;2024-02-28T07:55:58;95235.31;;;10.42;68.51
56831;BME280;42713;42.676;23.352;2024-02-28T07:58:24;95240.69;;;10.48;68.29
56831;BME280;42713;42.676;23.352;2024-02-28T08:00:50;95236.91;;;10.55;68.41
56831;BME280;42713;42.676;23.352;2024-02-28T08:03:15;95248.06;;;10.63;68.10
56831;BME280;42713;42.676;23.352;2024-02-28T08:05:41;95240.66;;;10.71;68.95
56831;BME280;42713;42.676;23.352;2024-02-28T08:08:09;95237.69;;;10.80;70.49
56831;BME280;42713;42.676;23.352;2024-02-28T08:10:35;95236.06;;;10.90;67.31
56831;BME280;42713;42.676;23.352;2024-02-28T08:35:29;95196.63;;;11.55;65.15
56831;BME280;42713;42.676;23.352;2024-02-28T08:37:54;95190.31;;;11.56;65.66
56831;BME280;42713;42.676;23.352;2024-02-28T09:27:18;95195.16;;;12.67;62.87
56831;BME280;42713;42.676;23.352;2024-02-28T09:30:07;95202.69;;;12.80;61.57
56831;BME280;42713;42.676;23.352;2024-02-28T09:32:33;95189.84;;;12.84;63.19
56831;BME280;42713;42.676;23.352;2024-02-28T09:35:03;95189.25;;;12.99;63.31
56831;BME280;42713;42.676;23.352;2024-02-28T09:37:30;95165.28;;;12.95;63.21
56831;BME280;42713;42.676;23.352;2024-02-28T09:40:20;95177.06;;;13.15;63.16
56831;BME280;42713;42.676;23.352;2024-02-28T09:42:52;95173.63;;;13.14;59.43
56831;BME280;42713;42.676;23.352;2024-02-28T09:45:21;95181.72;;;13.35;60.54
56831;BME280;42713;42.676;23.352;2024-02-28T09:47:47;95187.13;;;13.45;60.06
56831;BME280;42713;42.676;23.352;2024-02-28T09:50:17;95180.06;;;13.51;59.71
56831;BME280;42713;42.676;23.352;2024-02-28T09:52:59;95180.44;;;13.60;57.44
56831;BME280;42713;42.676;23.352;2024-02-28T09:55:41;95172.53;;;13.60;56.82
56831;BME280;42713;42.676;23.352;2024-02-28T09:58:09;95171.81;;;13.69;57.23
56831;BME280;42713;42.676;23.352;2024-02-28T10:00:41;95162.94;;;13.76;60.61
56831;BME280;42713;42.676;23.352;2024-02-28T10:03:46;95156.59;;;13.77;56.82
56831;BME280;42713;42.676;23.352;2024-02-28T10:07:04;95148.94;;;13.70;55.50
56831;BME280;42713;42.676;23.352;2024-02-28T10:09:32;95155.81;;;13.76;57.43
56831;BME280;42713;42.676;23.352;2024-02-28T10:12:04;95147.91;;;13.76;59.26
56831;BME280;42713;42.676;23.352;2024-02-28T10:14:36;95164.63;;;13.92;58.50
56831;BME280;42713;42.676;23.352;2024-02-28T10:17:09;95146.16;;;13.87;55.35
56831;BME280;42713;42.676;23.352;2024-02-28T10:20:01;95156.81;;;14.03;56.47
56831;BME280;42713;42.676;23.352;2024-02-28T10:22:58;95149.19;;;14.06;56.94
56831;BME280;42713;42.676;23.352;2024-02-28T10:25:55;95133.34;;;14.01;57.35
56831;BME280;42713;42.676;23.352;2024-02-28T10:28:41;95146.34;;;14.18;56.53
56831;BME280;42713;42.676;23.352;2024-02-28T10:31:16;95145.09;;;14.26;56.22
56831;BME280;42713;42.676;23.352;2024-02-28T10:33:50;95123.75;;;14.22;56.10
56831;BME280;42713;42.676;23.352;2024-02-28T10:36:25;95117.97;;;14.25;54.70
56831;BME280;42713;42.676;23.352;2024-02-28T10:39:06;95116.94;;;14.37;56.32
56831;BME280;42713;42.676;23.352;2024-02-28T10:41:33;95126.50;;;14.48;55.64
56831;BME280;42713;42.676;23.352;2024-02-28T10:44:00;95125.50;;;14.59;55.89
56831;BME280;42713;42.676;23.352;2024-02-28T10:46:31;95108.91;;;14.64;55.36
56831;BME280;42713;42.676;23.352;2024-02-28T10:48:57;95125.34;;;14.76;53.02
56831;BME280;42713;42.676;23.352;2024-02-28T10:51:24;95120.59;;;14.78;52.78
56831;BME280;42713;42.676;23.352;2024-02-28T10:54:10;95123.28;;;14.89;54.52
56831;BME280;42713;42.676;23.352;2024-02-28T10:56:37;95105.56;;;14.74;52.13
56831;BME280;42713;42.676;23.352;2024-02-28T10:59:10;95099.78;;;14.82;51.76
56831;BME280;42713;42.676;23.352;2024-02-28T11:01:46;95096.34;;;14.82;51.51
56831;BME280;42713;42.676;23.352;2024-02-28T11:04:22;95106.66;;;14.93;51.31
56831;BME280;42713;42.676;23.352;2024-02-28T11:07:18;95099.28;;;15.01;51.45
56831;BME280;42713;42.676;23.352;2024-02-28T11:10:03;95075.53;;;14.96;51.75
56831;BME280;42713;42.676;23.352;2024-02-28T11:12:38;95091.94;;;15.13;52.12
56831;BME280;42713;42.676;23.352;2024-02-28T11:15:18;95071.88;;;15.07;52.41
56831;BME280;42713;42.676;23.352;2024-02-28T11:18:52;95073.47;;;15.29;51.71
56831;BME280;42713;42.676;23.352;2024-02-28T11:21:18;95072.44;;;15.40;52.03
56831;BME280;42713;42.676;23.352;2024-02-28T11:28:28;95085.06;;;15.74;50.92
56831;BME280;42713;42.676;23.352;2024-02-28T11:32:01;95065.78;;;15.79;51.21
56831;BME280;42713;42.676;23.352;2024-02-28T11:39:05;95061.28;;;16.10;48.70
56831;BME280;42713;42.676;23.352;2024-02-28T11:49:43;95042.44;;;16.32;47.47
56831;BME280;42713;42.676;23.352;2024-02-28T12:24:30;95023.19;;;17.81;44.50
56831;BME280;42713;42.676;23.352;2024-02-28T12:44:07;94994.47;;;18.17;42.27
56831;BME280;42713;42.676;23.352;2024-02-28T12:46:36;94990.53;;;18.15;40.92
56831;BME280;42713;42.676;23.352;2024-02-28T12:49:37;94996.91;;;18.14;41.54
56831;BME280;42713;42.676;23.352;2024-02-28T12:52:59;94988.16;;;18.13;42.11
56831;BME280;42713;42.676;23.352;2024-02-28T12:59:00;94986.09;;;18.10;42.97
56831;BME280;42713;42.676;23.352;2024-02-28T13:01:26;95002.88;;;18.25;41.88
56831;BME280;42713;42.676;23.352;2024-02-28T13:07:21;94971.97;;;17.91;40.75
56831;BME280;42713;42.676;23.352;2024-02-28T13:10:34;94986.84;;;17.86;41.47
56831;BME280;42713;42.676;23.352;2024-02-28T13:18:36;94979.00;;;17.76;41.33
56831;BME280;42713;42.676;23.352;2024-02-28T13:21:33;94980.38;;;17.73;41.71
56831;BME280;42713;42.676;23.352;2024-02-28T13:28:19;95006.47;;;17.85;41.47
56831;BME280;42713;42.676;23.352;2024-02-28T13:33:46;94981.50;;;17.67;42.04
56831;BME280;42713;42.676;23.352;2024-02-28T13:36:22;94990.44;;;17.71;42.18
56831;BME280;42713;42.676;23.352;2024-02-28T13:39:13;94990.00;;;17.64;41.50
56831;BME280;42713;42.676;23.352;2024-02-28T13:48:02;94984.25;;;17.57;41.62
56831;BME280;42713;42.676;23.352;2024-02-28T13:54:46;94972.72;;;17.42;41.55
56831;BME280;42713;42.676;23.352;2024-02-28T14:02:19;94967.75;;;17.36;41.69
56831;BME280;42713;42.676;23.352;2024-02-28T14:08:27;94985.56;;;17.25;41.15
56831;BME280;42713;42.676;23.352;2024-02-28T14:15:19;94981.75;;;17.07;41.26
56831;BME280;42713;42.676;23.352;2024-02-28T14:18:33;94984.75;;;16.95;41.94
56831;BME280;42713;42.676;23.352;2024-02-28T14:21:09;95002.22;;;16.96;41.18
56831;BME280;42713;42.676;23.352;2024-02-28T14:26:55;94987.22;;;16.76;41.64
56831;BME280;42713;42.676;23.352;2024-02-28T14:30:00;94994.84;;;16.83;41.40
56831;BME280;42713;42.676;23.352;2024-02-28T14:33:19;95001.13;;;16.92;41.97
56831;BME280;42713;42.676;23.352;2024-02-28T14:36:49;94979.03;;;16.72;41.88
56831;BME280;42713;42.676;23.352;2024-02-28T14:39:39;94979.81;;;16.78;41.95
56831;BME280;42713;42.676;23.352;2024-02-28T14:43:18;94980.59;;;16.78;41.96
56831;BME280;42713;42.676;23.352;2024-02-28T14:47:12;94978.28;;;16.67;42.21
56831;BME280;42713;42.676;23.352;2024-02-28T14:49:37;94997.25;;;16.84;42.19
56831;BME280;42713;42.676;23.352;2024-02-28T14:52:09;94967.00;;;16.56;42.46
56831;BME280;42713;42.676;23.352;2024-02-28T14:55:23;94982.56;;;16.62;42.57
56831;BME280;42713;42.676;23.352;2024-02-28T14:58:23;94978.09;;;16.58;42.80
56831;BME280;42713;42.676;23.352;2024-02-28T15:12:22;94973.56;;;16.63;42.37
56831;BME280;42713;42.676;23.352;2024-02-28T15:59:09;95022.75;;;16.59;42.98
56831;BME280;42713;42.676;23.352;2024-02-28T16:06:36;95030.72;;;16.54;42.95
56831;BME280;42713;42.676;23.352;2024-02-28T16:09:10;95038.16;;;16.47;43.43
56831;BME280;42713;42.676;23.352;2024-02-28T16:11:45;95014.97;;;16.33;43.19
56831;BME280;42713;42.676;23.352;2024-02-28T16:21:14;95014.19;;;16.23;44.85
56831;BME280;42713;42.676;23.352;2024-02-28T16:23:48;95022.44;;;16.16;45.29
56831;BME280;42713;42.676;23.352;2024-02-28T16:26:16;95028.78;;;16.10;45.92
56831;BME280;42713;42.676;23.352;2024-02-28T16:28:49;95016.66;;;15.98;45.84
56831;BME280;42713;42.676;23.352;2024-02-28T16:31:25;95048.34;;;16.14;46.45
56831;BME280;42713;42.676;23.352;2024-02-28T16:34:05;95027.22;;;15.98;46.24
56831;BME280;42713;42.676;23.352;2024-02-28T16:36:34;95022.78;;;15.89;46.43
56831;BME280;42713;42.676;23.352;2024-02-28T16:42:16;95034.91;;;15.95;46.47
56831;BME280;42713;42.676;23.352;2024-02-28T16:44:42;95047.56;;;16.03;46.64
56831;BME280;42713;42.676;23.352;2024-02-28T16:47:14;95061.81;;;16.02;47.02
56831;BME280;42713;42.676;23.352;2024-02-28T16:49:54;95052.59;;;15.94;46.83
56831;BME280;42713;42.676;23.352;2024-02-28T16:52:20;95075.56;;;16.04;47.14
56831;BME280;42713;42.676;23.352;2024-02-28T16:54:48;95060.28;;;15.91;47.04
56831;BME280;42713;42.676;23.352;2024-02-28T16:57:21;95067.94;;;15.92;46.91
56831;BME280;42713;42.676;23.352;2024-02-28T17:00:09;95071.88;;;15.95;47.07
56831;BME280;42713;42.676;23.352;2024-02-28T17:02:45;95064.50;;;15.86;46.84
56831;BME280;42713;42.676;23.352;2024-02-28T17:05:14;95056.56;;;15.81;46.00
56831;BME280;42713;42.676;23.352;2024-02-28T17:07:49;95053.13;;;15.70;45.78
56831;BME280;42713;42.676;23.352;2024-02-28T17:10:15;95077.41;;;15.83;45.85
56831;BME280;42713;42.676;23.352;2024-02-28T17:12:40;95069.78;;;15.71;45.55
56831;BME280;42713;42.676;23.352;2024-02-28T17:15:06;95068.19;;;15.65;45.70
56831;BME280;42713;42.676;23.352;2024-02-28T17:17:32;95080.34;;;15.66;45.42
56831;BME280;42713;42.676;23.352;2024-02-28T17:20:13;95077.72;;;15.61;45.54
56831;BME280;42713;42.676;23.352;2024-02-28T17:22:54;95073.50;;;15.60;45.36
56831;BME280;42713;42.676;23.352;2024-02-28T17:25:44;95076.13;;;15.54;45.40
56831;BME280;42713;42.676;23.352;2024-02-28T17:28:15;95082.72;;;15.57;45.41